UAE46 EDDF-OMDB
Flight info
| Callsign | UAE46 |
|---|---|
| Flight time | N/A |
| Altitude | 37000 |
| Route | CINDY8S CINDY Z74 LAMPU DCT NOMBO Y161 MAH DCT LATLO DCT OBEDI DCT BABOL DCT NISVA DCT USALI DCT OTKOK DCT RODIP DCT BELGI DCT KETEK UT38 VESAR/N0493F390 L620 BALMA UR655 LEBOR R655 KTN R785 RASLI P559 TRF R23 NEVOL N318 TAMRO T503 KSA M321 RESAL T533 RAPMA DCT KUVSO DCT KATIT DCT PEKEM M628 RIGIL G783 ELUDA/N0475F350 G783 ASPED Q308 KIPOK Q568 IMPED |
| Aircraft | A388/J-SADE2E3FGHIJ3J4J5M1RWXY/LB1D1 |
Departure
| Time | N/A |
|---|---|
| Airport | Frankfurt Main Airport (EDDF) |
Arrival
| Time | 2026-05-06 14:04 |
|---|---|
| Airport | Dubai International Airport (OMDB) |
| Time | Latitude | Longitude | Altitude | Speed | Heading |
|---|---|---|---|---|---|
| 2026-05-06 13:59 | 25.12826 | 55.58943 | 2147 ft | 205 kts | 302° |
| 2026-05-06 13:59 | 25.13565 | 55.57607 | 2039 ft | 203 kts | 302° |
| 2026-05-06 13:59 | 25.14296 | 55.56291 | 2033 ft | 200 kts | 302° |
| 2026-05-06 13:59 | 25.15019 | 55.54983 | 2035 ft | 199 kts | 302° |
| 2026-05-06 14:00 | 25.15742 | 55.53678 | 2035 ft | 200 kts | 302° |
| 2026-05-06 14:00 | 25.16222 | 55.52813 | 2034 ft | 200 kts | 302° |
| 2026-05-06 14:00 | 25.17186 | 55.51071 | 2032 ft | 197 kts | 302° |
| 2026-05-06 14:00 | 25.17663 | 55.50212 | 2034 ft | 198 kts | 302° |
| 2026-05-06 14:01 | 25.18382 | 55.48913 | 1931 ft | 197 kts | 302° |
| 2026-05-06 14:01 | 25.19067 | 55.47674 | 1666 ft | 181 kts | 303° |
| 2026-05-06 14:01 | 25.19718 | 55.46501 | 1427 ft | 178 kts | 303° |
| 2026-05-06 14:01 | 25.20357 | 55.45342 | 1199 ft | 175 kts | 302° |
| 2026-05-06 14:02 | 25.20981 | 55.44216 | 979 ft | 166 kts | 302° |
| 2026-05-06 14:02 | 25.21547 | 55.43191 | 785 ft | 149 kts | 303° |
| 2026-05-06 14:02 | 25.22077 | 55.42236 | 611 ft | 144 kts | 302° |
| 2026-05-06 14:02 | 25.22595 | 55.41282 | 445 ft | 145 kts | 302° |
| 2026-05-06 14:03 | 25.23117 | 55.40338 | 248 ft | 142 kts | 303° |
| 2026-05-06 14:03 | 25.23635 | 55.39399 | 45 ft | 142 kts | 303° |
| 2026-05-06 14:03 | 25.24076 | 55.38609 | 29 ft | 106 kts | 301° |
| 2026-05-06 14:03 | 25.24397 | 55.38032 | 30 ft | 64 kts | 301° |
| 2026-05-06 14:04 | 25.24527 | 55.37797 | 28 ft | 26 kts | 301° |
| 2026-05-06 14:04 | 25.24595 | 55.37609 | 27 ft | 26 kts | 282° |
| 2026-05-06 14:04 | 25.24615 | 55.37409 | 27 ft | 26 kts | 272° |
| 2026-05-06 14:04 | 25.24649 | 55.37213 | 27 ft | 26 kts | 302° |
| 2026-05-06 14:05 | 25.24748 | 55.37040 | 27 ft | 27 kts | 302° |
| 2026-05-06 14:05 | 25.24841 | 55.36857 | 27 ft | 27 kts | 289° |
| 2026-05-06 14:05 | 25.24900 | 55.36654 | 26 ft | 28 kts | 299° |
| 2026-05-06 14:05 | 25.25000 | 55.36474 | 26 ft | 28 kts | 302° |
| 2026-05-06 14:06 | 25.25107 | 55.36288 | 26 ft | 29 kts | 303° |
| 2026-05-06 14:06 | 25.25210 | 55.36097 | 26 ft | 29 kts | 302° |
| 2026-05-06 14:06 | 25.25316 | 55.35911 | 26 ft | 29 kts | 302° |
| 2026-05-06 14:06 | 25.25421 | 55.35725 | 29 ft | 28 kts | 302° |
| 2026-05-06 14:07 | 25.25524 | 55.35540 | 31 ft | 28 kts | 301° |
| 2026-05-06 14:07 | 25.25628 | 55.35352 | 31 ft | 29 kts | 301° |
| 2026-05-06 14:07 | 25.25730 | 55.35171 | 32 ft | 22 kts | 300° |
| 2026-05-06 14:07 | 25.25701 | 55.35052 | 30 ft | 18 kts | 213° |
| 2026-05-06 14:08 | 25.25584 | 55.34974 | 30 ft | 21 kts | 211° |
| 2026-05-06 14:08 | 25.25445 | 55.34905 | 30 ft | 22 kts | 171° |
| 2026-05-06 14:08 | 25.25324 | 55.35005 | 28 ft | 23 kts | 121° |
| 2026-05-06 14:08 | 25.25235 | 55.35158 | 30 ft | 24 kts | 124° |
| 2026-05-06 14:09 | 25.25137 | 55.35310 | 29 ft | 25 kts | 125° |
| 2026-05-06 14:09 | 25.25081 | 55.35407 | 31 ft | 10 kts | 103° |
| 2026-05-06 14:09 | 25.25099 | 55.35454 | 30 ft | 6 kts | 32° |
| 2026-05-06 14:09 | 25.25126 | 55.35472 | 29 ft | 3 kts | 31° |
| 2026-05-06 14:10 | 25.25136 | 55.35479 | 29 ft | 0 kts | 31° |